Portada
METAR-TAF:

METAR-TAF

Aeroports :

Bratsk, Rússia

latitud: 56-22-15N, longitud: 101-41-55E, altitud: 490 m

Observació

L'informe es va fer fa 37 minuts, a les 09:30 UTC
Vent 6 kt del Sud/Sud-Est, variant entre Est i Sud-Oest
Temperatura 22°C
Humitat 53%
Pressió 1005 hPa
Visibilitat 10 km o més
Núvols disperses a una alçada de 5000 ft, Cumulonimbus.

METAR: UIBB 050930Z 15003MPS 100V220 9999 SCT050CB 22/12 Q1005 R30/60D NOSIG RMK QFE711/0949

Hora: 18:07 (10:07 UTC)

Pronòstic

L'informe es va fer fa 2 hores i 7 minuts, a les 08:00 UTC
Pronòstic vàlid del 05 a les 09 UTC al 06 a les 09 UTC
Vent 6 kt del Nord amb ràfegues de 16 kt
Visibilitat 10 km o més
Cel ennuvolat a una alçada de 1600 ft, Cumulonimbus.
Temporalment
l' 05 a les 09 UTC al 05 a les 15 UTC
Vent 16 kt amb direcció variable
tempesta, pluja

TAF: UIBB 050800Z 0509/0609 36003G08MPS 9999 BKN016CB TEMPO 0509/0515 VRB08MPS -TSRA

Observacions i pronòstics meteorològics de més de 4000 aeroports (METAR i TAF).

Les estacions disponibles són els punts grocs i vermells al mapa.

Posi el ratolí al punt desitjat per veure el nom de l'estació.

Feu clic per veure les observacions i els pronòstics meteorològics.

Per canviar el mapa: feu clic els botons verds amb una creu de color negre per apropar; al botó verd amb un guió per allunyar la imatge; o en les fletxes verdes per a mapes adjacents.


METAR-TAF: